createdAt,value
2018-08-20T00:00:19.416Z,55.07
2018-08-20T00:02:50.523Z,55.31
2018-08-20T00:05:21.431Z,54.94
2018-08-20T00:07:52.555Z,55.21
2018-08-20T00:10:24.037Z,55.04
2018-08-20T00:12:54.494Z,54.70
2018-08-20T00:15:25.790Z,54.27
2018-08-20T00:17:56.210Z,54.17
2018-08-20T00:20:27.040Z,54.46
2018-08-20T00:23:04.922Z,54.26
2018-08-20T00:25:36.330Z,55.66
2018-08-20T00:28:07.387Z,56.36
2018-08-20T00:30:38.031Z,57.42
2018-08-20T00:33:08.582Z,57.36
2018-08-20T00:35:38.582Z,57.39
2018-08-20T00:38:08.945Z,58.02
2018-08-20T00:40:40.183Z,57.40
2018-08-20T00:43:10.344Z,58.30
2018-08-20T00:45:41.752Z,58.40
2018-08-20T00:48:12.720Z,56.54
2018-08-20T00:50:44.089Z,57.42
2018-08-20T00:53:15.711Z,56.89
2018-08-20T00:55:47.126Z,56.98
2018-08-20T00:58:17.382Z,56.95
2018-08-20T01:00:48.048Z,57.83
2018-08-20T01:03:19.174Z,57.82
2018-08-20T01:05:49.907Z,57.47
2018-08-20T01:08:20.520Z,58.42
2018-08-20T01:10:51.560Z,58.14
2018-08-20T01:13:23.276Z,57.08
2018-08-20T01:15:55.558Z,57.68
2018-08-20T01:18:25.806Z,57.08
2018-08-20T01:20:57.090Z,57.77
2018-08-20T01:23:28.335Z,57.07
2018-08-20T01:25:59.502Z,57.99
2018-08-20T01:28:31.564Z,58.15
2018-08-20T01:31:02.046Z,58.05
2018-08-20T01:33:33.812Z,58.33
2018-08-20T01:36:04.386Z,59.00
2018-08-20T01:38:34.442Z,59.21
2018-08-20T01:41:06.660Z,58.84
2018-08-20T01:43:39.188Z,59.73
2018-08-20T01:46:09.754Z,59.92
2018-08-20T01:48:41.410Z,59.20
2018-08-20T01:51:11.889Z,60.29
2018-08-20T01:53:43.771Z,60.63
2018-08-20T01:56:14.175Z,60.42
2018-08-20T01:58:45.935Z,60.17
2018-08-20T02:01:16.602Z,60.44
2018-08-20T02:03:48.197Z,61.32
2018-08-20T02:06:19.215Z,60.85
2018-08-20T02:08:49.976Z,60.61
2018-08-20T02:11:22.084Z,60.89
2018-08-20T02:13:55.591Z,61.28
2018-08-20T02:16:26.061Z,61.41
2018-08-20T02:18:57.667Z,61.55
2018-08-20T02:21:28.456Z,60.64
2018-08-20T02:23:59.197Z,60.85
2018-08-20T02:26:30.279Z,61.04
2018-08-20T02:29:01.443Z,60.57
2018-08-20T02:31:31.565Z,62.45
2018-08-20T02:34:02.835Z,62.83
2018-08-20T02:36:35.191Z,62.30
2018-08-20T02:39:10.075Z,61.42
2018-08-20T02:41:43.183Z,62.58
2018-08-20T02:44:14.091Z,63.32
2018-08-20T02:46:54.637Z,63.44
2018-08-20T02:49:25.667Z,63.40
2018-08-20T02:51:56.053Z,63.78
2018-08-20T02:54:27.915Z,63.99
2018-08-20T02:56:58.897Z,63.11
2018-08-20T02:59:29.617Z,63.97
2018-08-20T03:02:00.301Z,64.47
2018-08-20T03:04:32.875Z,64.22
2018-08-20T03:07:03.585Z,63.27
2018-08-20T03:09:36.745Z,63.36
2018-08-20T03:12:07.604Z,63.35
2018-08-20T03:14:38.301Z,64.22
2018-08-20T03:17:10.199Z,63.67
2018-08-20T03:19:40.648Z,64.36
2018-08-20T03:22:11.087Z,64.90
2018-08-20T03:24:42.038Z,64.86
2018-08-20T03:27:13.344Z,64.34
2018-08-20T03:29:44.037Z,65.43
2018-08-20T03:32:19.975Z,65.87
2018-08-20T03:34:51.423Z,66.53
2018-08-20T03:37:21.625Z,65.76
2018-08-20T03:39:52.054Z,65.72
2018-08-20T03:42:23.756Z,66.00
2018-08-20T03:44:54.497Z,65.71
2018-08-20T03:47:25.820Z,66.78
2018-08-20T03:49:56.361Z,67.12
2018-08-20T03:52:44.518Z,67.16
2018-08-20T03:55:16.127Z,66.64
2018-08-20T03:57:53.513Z,66.79
2018-08-20T04:00:25.126Z,66.83
2018-08-20T04:02:56.238Z,67.27
2018-08-20T04:08:17.747Z,66.08
2018-08-20T04:11:00.123Z,66.65
2018-08-20T04:13:32.213Z,65.65
2018-08-20T04:16:03.018Z,65.32
2018-08-20T04:18:33.626Z,66.51
2018-08-20T04:21:05.491Z,67.42
2018-08-20T04:23:35.950Z,66.59
2018-08-20T04:26:06.979Z,66.60
2018-08-20T04:28:39.097Z,66.14
2018-08-20T04:31:13.166Z,66.96
2018-08-20T04:33:43.979Z,67.58
2018-08-20T04:36:14.058Z,67.74
2018-08-20T04:38:45.654Z,67.36
2018-08-20T04:41:17.718Z,66.89
2018-08-20T04:43:48.374Z,67.47
2018-08-20T04:46:20.542Z,66.92
2018-08-20T04:48:50.766Z,68.26
2018-08-20T04:51:21.872Z,66.22
2018-08-20T04:53:52.918Z,66.70
2018-08-20T04:56:24.062Z,66.27
2018-08-20T04:58:56.158Z,66.13
2018-08-20T05:01:26.647Z,66.90
2018-08-20T05:03:57.730Z,65.69
2018-08-20T05:06:28.260Z,66.20
2018-08-20T05:08:58.492Z,65.61
2018-08-20T05:11:29.554Z,66.09
2018-08-20T05:14:00.622Z,65.44
2018-08-20T05:16:32.283Z,64.98
2018-08-20T05:19:03.423Z,65.18
2018-08-20T05:21:33.560Z,64.61
2018-08-20T05:24:04.376Z,64.62
2018-08-20T05:26:35.334Z,64.66
2018-08-20T05:29:06.414Z,63.31
2018-08-20T05:31:37.995Z,63.23
2018-08-20T05:34:08.981Z,62.63
2018-08-20T05:36:39.789Z,62.77
2018-08-20T05:39:12.010Z,61.65
2018-08-20T05:41:49.529Z,59.88
2018-08-20T05:44:23.310Z,57.52
2018-08-20T05:46:54.680Z,56.56
2018-08-20T05:49:25.156Z,55.85
2018-08-20T05:52:03.566Z,53.76
2018-08-20T05:54:33.867Z,52.71
2018-08-20T05:57:06.197Z,52.14
2018-08-20T05:59:37.508Z,52.34
2018-08-20T06:02:09.992Z,50.77
2018-08-20T06:04:41.427Z,50.55
2018-08-20T06:07:12.670Z,49.21
2018-08-20T06:09:43.406Z,50.26
2018-08-20T06:12:14.037Z,49.58
2018-08-20T06:14:44.530Z,50.23
2018-08-20T06:17:14.646Z,50.62
2018-08-20T06:19:45.338Z,50.56
2018-08-20T06:22:16.364Z,49.04
2018-08-20T06:24:47.938Z,48.17
2018-08-20T06:27:18.226Z,47.78
2018-08-20T06:29:49.281Z,47.34
2018-08-20T06:32:20.064Z,44.73
2018-08-20T06:34:50.221Z,43.24
2018-08-20T06:37:21.410Z,41.70
2018-08-20T06:39:53.224Z,40.86
2018-08-20T06:42:23.809Z,40.09
2018-08-20T06:44:55.365Z,40.13
2018-08-20T06:47:27.500Z,38.77
2018-08-20T06:49:59.422Z,38.67
2018-08-20T06:52:29.592Z,38.01
2018-08-20T06:55:00.472Z,37.70
2018-08-20T06:57:31.495Z,38.29
2018-08-20T07:00:01.936Z,37.69
2018-08-20T07:02:33.516Z,38.56
2018-08-20T07:05:05.541Z,38.74
2018-08-20T07:07:38.347Z,38.25
2018-08-20T07:10:15.693Z,38.79
2018-08-20T07:12:45.908Z,40.08
2018-08-20T07:15:17.383Z,40.61
2018-08-20T07:17:48.308Z,42.02
2018-08-20T07:20:18.666Z,42.90
2018-08-20T07:22:49.888Z,42.42
2018-08-20T07:25:20.427Z,42.27
2018-08-20T07:27:51.999Z,43.09
2018-08-20T07:30:22.731Z,41.28
2018-08-20T07:32:53.040Z,41.12
2018-08-20T07:35:24.027Z,42.15
2018-08-20T07:37:55.271Z,41.14
2018-08-20T07:40:26.646Z,40.95
2018-08-20T07:42:56.917Z,39.76
2018-08-20T07:45:28.303Z,38.60
2018-08-20T07:47:59.113Z,38.29
2018-08-20T07:50:29.203Z,36.44
2018-08-20T07:53:00.011Z,36.56
2018-08-20T07:55:30.296Z,35.67
2018-08-20T07:58:01.511Z,35.90
2018-08-20T08:00:31.720Z,36.01
2018-08-20T08:03:02.529Z,35.11
2018-08-20T08:05:32.644Z,35.38
2018-08-20T08:08:04.275Z,35.58
2018-08-20T08:10:34.547Z,33.97
2018-08-20T08:13:05.643Z,35.44
2018-08-20T08:15:37.505Z,35.29
2018-08-20T08:18:12.465Z,34.73
2018-08-20T08:20:43.099Z,35.47
2018-08-20T08:23:14.213Z,34.34
2018-08-20T08:25:45.617Z,34.73
2018-08-20T08:28:16.568Z,33.67
2018-08-20T08:30:48.698Z,33.07
2018-08-20T08:33:20.427Z,32.70
2018-08-20T08:35:51.246Z,32.33
2018-08-20T08:38:21.546Z,34.38
2018-08-20T08:40:53.176Z,32.40
2018-08-20T08:43:23.826Z,31.97
2018-08-20T08:45:55.971Z,32.62
2018-08-20T08:48:27.318Z,32.82
2018-08-20T08:50:57.578Z,31.40
2018-08-20T08:53:29.784Z,31.36
2018-08-20T08:56:01.109Z,30.49
2018-08-20T08:58:31.838Z,30.50
2018-08-20T09:01:02.883Z,30.26
2018-08-20T09:03:34.498Z,29.54
2018-08-20T09:06:06.293Z,31.25
2018-08-20T09:08:36.842Z,32.66
2018-08-20T09:11:07.440Z,32.29
2018-08-20T09:13:38.580Z,30.43
2018-08-20T09:16:08.695Z,29.88
2018-08-20T09:18:39.406Z,29.51
2018-08-20T09:21:10.457Z,28.27
2018-08-20T09:23:43.060Z,30.27
2018-08-20T09:26:14.106Z,30.81
2018-08-20T09:28:44.630Z,30.33
2018-08-20T09:31:18.562Z,30.10
2018-08-20T09:33:49.674Z,28.47
2018-08-20T09:36:19.882Z,27.70
2018-08-20T09:38:50.952Z,28.44
2018-08-20T09:41:21.168Z,28.39
2018-08-20T09:43:52.949Z,28.23
2018-08-20T09:46:24.014Z,29.15
2018-08-20T09:48:55.218Z,28.55
2018-08-20T09:51:26.457Z,27.73
2018-08-20T09:53:58.830Z,27.15
2018-08-20T09:56:32.077Z,28.29
2018-08-20T09:59:03.795Z,29.60
2018-08-20T10:01:35.036Z,28.43
2018-08-20T10:04:06.406Z,27.53
2018-08-20T10:06:36.844Z,27.64
2018-08-20T10:09:07.833Z,27.89
2018-08-20T10:11:39.684Z,28.47
2018-08-20T10:14:11.770Z,28.58
2018-08-20T10:16:42.243Z,28.74
2018-08-20T10:19:14.852Z,27.54
2018-08-20T10:21:45.931Z,27.07
2018-08-20T10:24:16.628Z,26.76
2018-08-20T10:26:46.637Z,27.61
2018-08-20T10:29:18.282Z,27.15
2018-08-20T10:31:49.551Z,25.92
2018-08-20T10:34:19.542Z,23.94
2018-08-20T10:36:49.868Z,25.79
2018-08-20T10:39:20.615Z,26.29
2018-08-20T10:41:52.528Z,25.21
2018-08-20T10:44:22.970Z,24.16
2018-08-20T10:46:53.274Z,23.21
2018-08-20T10:49:24.874Z,21.86
2018-08-20T10:51:55.930Z,21.93
2018-08-20T10:54:27.501Z,24.26
2018-08-20T10:56:58.737Z,24.21
2018-08-20T10:59:28.982Z,22.94
2018-08-20T11:01:59.439Z,23.90
2018-08-20T11:04:30.665Z,23.76
2018-08-20T11:07:00.828Z,21.56
2018-08-20T11:09:32.198Z,21.32
2018-08-20T11:12:03.536Z,22.26
2018-08-20T11:14:34.408Z,23.03
2018-08-20T11:17:05.833Z,23.56
2018-08-20T11:19:38.001Z,21.90
2018-08-20T11:22:09.183Z,21.30
2018-08-20T11:24:39.718Z,21.05
2018-08-20T11:27:10.795Z,21.62
2018-08-20T11:29:41.084Z,22.77
2018-08-20T11:32:11.849Z,24.78
2018-08-20T11:34:43.551Z,24.07
2018-08-20T11:37:13.996Z,25.62
2018-08-20T11:39:45.146Z,22.30
2018-08-20T11:42:16.190Z,23.05
2018-08-20T11:44:47.121Z,23.96
2018-08-20T11:47:19.117Z,22.75
2018-08-20T11:49:50.027Z,21.61
2018-08-20T11:52:20.552Z,21.39
2018-08-20T11:54:51.607Z,20.98
2018-08-20T11:57:23.533Z,19.07
2018-08-20T11:59:54.953Z,21.17
2018-08-20T12:02:26.331Z,22.94
2018-08-20T12:04:56.860Z,20.78
2018-08-20T12:07:28.277Z,19.41
2018-08-20T12:10:00.641Z,19.42
2018-08-20T12:12:30.751Z,18.53
2018-08-20T12:15:00.818Z,18.75
2018-08-20T12:17:31.351Z,18.45
2018-08-20T12:20:02.452Z,17.99
2018-08-20T12:22:32.676Z,19.51
2018-08-20T12:25:03.317Z,18.96
2018-08-20T12:27:35.116Z,19.06
2018-08-20T12:30:09.149Z,17.57
2018-08-20T12:32:39.984Z,17.85
2018-08-20T12:35:10.767Z,17.28
2018-08-20T12:37:42.851Z,17.65
2018-08-20T12:40:14.114Z,19.01
2018-08-20T12:42:44.378Z,20.73
2018-08-20T12:45:14.759Z,20.58
2018-08-20T12:47:46.243Z,19.95
2018-08-20T12:50:17.075Z,20.46
2018-08-20T12:52:48.468Z,21.09
2018-08-20T12:55:18.547Z,20.23
2018-08-20T12:57:49.512Z,19.29
2018-08-20T13:00:21.395Z,19.03
2018-08-20T13:02:52.422Z,19.77
2018-08-20T13:05:23.248Z,19.76
2018-08-20T13:07:53.828Z,20.58
2018-08-20T13:10:24.366Z,18.99
2018-08-20T13:12:54.546Z,18.63
2018-08-20T13:15:25.586Z,20.77
2018-08-20T13:17:56.365Z,21.93
2018-08-20T13:20:26.771Z,21.77
2018-08-20T13:22:57.930Z,21.53
2018-08-20T13:25:28.874Z,20.98
2018-08-20T13:27:59.884Z,19.93
2018-08-20T13:30:31.129Z,19.58
2018-08-20T13:33:01.250Z,18.31
2018-08-20T13:35:34.312Z,17.47
2018-08-20T13:38:07.083Z,19.40
2018-08-20T13:40:40.122Z,19.29
2018-08-20T13:43:11.635Z,21.52
2018-08-20T13:45:42.445Z,22.24
2018-08-20T13:48:13.753Z,20.77
2018-08-20T13:50:46.987Z,20.54
2018-08-20T13:53:18.271Z,20.51
2018-08-20T13:55:48.822Z,19.85
2018-08-20T13:58:19.877Z,19.95
2018-08-20T14:00:50.996Z,19.71
2018-08-20T14:03:21.910Z,17.95
2018-08-20T14:05:51.992Z,18.93
2018-08-20T14:08:22.230Z,19.44
2018-08-20T14:10:53.450Z,18.80
2018-08-20T14:13:24.396Z,18.73
2018-08-20T14:15:54.870Z,18.31
2018-08-20T14:18:25.248Z,17.45
2018-08-20T14:21:17.301Z,16.85
2018-08-20T14:23:49.206Z,16.41
2018-08-20T14:26:20.048Z,15.63
2018-08-20T14:28:50.460Z,16.63
2018-08-20T14:31:20.794Z,16.15
2018-08-20T14:33:52.613Z,17.47
2018-08-20T14:36:23.490Z,19.87
2018-08-20T14:38:53.638Z,19.34
2018-08-20T14:41:23.752Z,19.56
2018-08-20T14:43:55.569Z,20.54
2018-08-20T14:46:25.858Z,21.58
2018-08-20T14:48:56.958Z,21.36
2018-08-20T14:51:27.110Z,22.23
2018-08-20T14:53:57.692Z,20.77
2018-08-20T14:56:28.986Z,22.12
2018-08-20T14:59:00.956Z,23.10
2018-08-20T15:01:33.674Z,23.05
2018-08-20T15:04:04.675Z,22.36
2018-08-20T15:06:42.181Z,23.58
2018-08-20T15:09:13.098Z,23.19
2018-08-20T15:11:44.421Z,24.77
2018-08-20T15:14:14.548Z,22.83
2018-08-20T15:16:44.753Z,22.60
2018-08-20T15:19:15.160Z,22.45
2018-08-20T15:21:49.132Z,22.50
2018-08-20T15:24:20.656Z,24.32
2018-08-20T15:26:52.296Z,24.36
2018-08-20T15:29:23.276Z,23.31
2018-08-20T15:31:53.892Z,22.91
2018-08-20T15:34:26.179Z,21.71
2018-08-20T15:36:56.637Z,20.93
2018-08-20T15:39:27.630Z,21.92
2018-08-20T15:41:59.234Z,21.40
2018-08-20T15:44:29.653Z,22.07
2018-08-20T15:47:01.444Z,22.04
2018-08-20T15:49:33.005Z,22.46
2018-08-20T15:52:03.312Z,22.07
2018-08-20T15:54:33.891Z,22.45
2018-08-20T15:57:04.923Z,23.72
2018-08-20T15:59:36.264Z,22.92
2018-08-20T16:02:06.790Z,23.65
2018-08-20T16:04:38.234Z,23.27
2018-08-20T16:07:09.500Z,24.23
2018-08-20T16:09:41.132Z,25.25
2018-08-20T16:12:12.403Z,23.99
2018-08-20T16:14:43.761Z,26.36
2018-08-20T16:17:14.549Z,26.55
2018-08-20T16:19:45.587Z,26.08
2018-08-20T16:22:16.930Z,25.61
2018-08-20T16:24:47.516Z,27.65
2018-08-20T16:27:19.062Z,29.15
2018-08-20T16:29:49.566Z,28.85
2018-08-20T16:32:19.997Z,28.42
2018-08-20T16:34:50.162Z,30.28
2018-08-20T16:37:20.432Z,29.18
2018-08-20T16:39:50.613Z,28.76
2018-08-20T16:42:22.250Z,30.24
2018-08-20T16:44:53.455Z,30.76
2018-08-20T16:47:24.477Z,30.22
2018-08-20T16:49:59.044Z,32.02
2018-08-20T16:52:30.022Z,32.72
2018-08-20T16:55:00.300Z,32.46
2018-08-20T16:57:30.431Z,32.96
2018-08-20T17:00:01.674Z,33.22
2018-08-20T17:02:33.124Z,33.30
2018-08-20T17:05:05.021Z,33.50
2018-08-20T17:07:37.444Z,34.61
2018-08-20T17:10:11.384Z,34.50
2018-08-20T17:12:44.299Z,37.04
2018-08-20T17:15:17.531Z,36.78
2018-08-20T17:17:48.002Z,36.86
2018-08-20T17:20:18.698Z,38.70
2018-08-20T17:22:51.357Z,37.47
2018-08-20T17:25:22.355Z,37.95
2018-08-20T17:28:02.810Z,39.02
2018-08-20T17:30:33.945Z,38.88
2018-08-20T17:33:05.495Z,38.68
2018-08-20T17:35:43.314Z,38.24
2018-08-20T17:38:14.973Z,39.33
2018-08-20T17:40:47.456Z,39.90
2018-08-20T17:43:19.960Z,37.88
2018-08-20T17:45:51.461Z,37.76
2018-08-20T17:48:29.122Z,38.04
2018-08-20T17:50:59.764Z,40.39
2018-08-20T17:53:42.540Z,40.87
2018-08-20T17:56:14.266Z,40.70
2018-08-20T17:58:45.778Z,40.87
2018-08-20T18:01:21.807Z,41.20
2018-08-20T18:03:52.131Z,41.23
2018-08-20T18:06:55.863Z,42.27
2018-08-20T18:09:31.136Z,42.84
2018-08-20T18:12:03.487Z,42.07
2018-08-20T18:14:35.579Z,43.00
2018-08-20T18:17:06.547Z,42.37
2018-08-20T18:19:38.201Z,43.59
2018-08-20T18:22:08.288Z,43.74
2018-08-20T18:24:38.871Z,43.03
2018-08-20T18:27:09.261Z,43.08
2018-08-20T18:29:40.824Z,43.29
2018-08-20T18:32:11.660Z,44.07
2018-08-20T18:34:42.796Z,44.22
2018-08-20T18:37:14.196Z,43.65
2018-08-20T18:39:48.739Z,43.66
2018-08-20T18:42:20.450Z,43.44
2018-08-20T18:44:51.620Z,43.85
2018-08-20T18:47:22.764Z,44.93
2018-08-20T18:49:59.448Z,44.25
2018-08-20T18:52:31.950Z,44.11
2018-08-20T18:55:02.990Z,44.53
2018-08-20T18:57:38.564Z,44.64
2018-08-20T19:00:15.000Z,45.18
2018-08-20T19:02:52.543Z,45.33
2018-08-20T19:05:25.075Z,46.09
2018-08-20T19:08:00.720Z,46.44
2018-08-20T19:10:32.764Z,46.13
2018-08-20T19:13:04.867Z,46.35
2018-08-20T19:15:43.162Z,46.98
2018-08-20T19:18:18.344Z,47.51
2018-08-20T19:20:49.219Z,46.99
2018-08-20T19:23:19.991Z,48.25
2018-08-20T19:25:52.396Z,48.48
2018-08-20T19:28:23.729Z,48.56
2018-08-20T19:30:56.206Z,47.88
2018-08-20T19:33:31.186Z,48.76
2018-08-20T19:36:03.315Z,48.35
2018-08-20T19:38:34.230Z,49.26
2018-08-20T19:41:08.731Z,49.10
2018-08-20T19:43:46.879Z,49.11
2018-08-20T19:46:31.489Z,48.43
2018-08-20T19:49:07.435Z,48.64
2018-08-20T19:51:39.701Z,49.49
2018-08-20T19:54:13.600Z,49.60
2018-08-20T19:56:43.897Z,49.96
2018-08-20T19:59:18.740Z,48.89
2018-08-20T20:01:50.184Z,49.04
2018-08-20T20:04:20.890Z,49.25
2018-08-20T20:06:52.232Z,49.40
2018-08-20T20:09:23.053Z,50.27
2018-08-20T20:11:53.548Z,50.62
2018-08-20T20:14:24.462Z,50.04
2018-08-20T20:16:55.608Z,51.03
2018-08-20T20:19:26.043Z,50.86
2018-08-20T20:21:57.929Z,51.02
2018-08-20T20:24:28.038Z,50.93
2018-08-20T20:26:59.017Z,49.82
2018-08-20T20:29:29.694Z,50.63
2018-08-20T20:31:59.831Z,51.45
2018-08-20T20:34:31.457Z,50.68
2018-08-20T20:37:03.857Z,51.37
2018-08-20T20:39:34.107Z,51.12
2018-08-20T20:42:05.176Z,50.79
2018-08-20T20:44:35.564Z,51.26
2018-08-20T20:47:06.924Z,52.05
2018-08-20T20:49:37.066Z,52.27
2018-08-20T20:52:11.255Z,52.44
2018-08-20T20:54:42.615Z,51.86
2018-08-20T20:57:13.060Z,52.73
2018-08-20T20:59:45.065Z,53.19
2018-08-20T21:02:16.308Z,53.33
2018-08-20T21:04:47.240Z,53.05
2018-08-20T21:07:24.705Z,52.80
2018-08-20T21:09:55.720Z,52.57
2018-08-20T21:12:27.710Z,52.43
2018-08-20T21:14:57.966Z,53.74
2018-08-20T21:19:58.147Z,52.99
2018-08-20T21:22:28.951Z,53.41
2018-08-20T21:24:59.558Z,52.89
2018-08-20T21:27:30.000Z,53.35
2018-08-20T21:30:01.751Z,53.45
2018-08-20T21:32:32.929Z,53.64
2018-08-20T21:35:03.987Z,53.69
2018-08-20T21:37:35.397Z,52.73
2018-08-20T21:40:05.624Z,52.75
2018-08-20T21:42:42.672Z,52.65
2018-08-20T21:45:13.747Z,52.16
2018-08-20T21:47:44.346Z,52.68
2018-08-20T21:50:14.470Z,53.02
2018-08-20T21:52:48.148Z,53.13
2018-08-20T21:55:18.521Z,52.30
2018-08-20T21:57:56.355Z,52.71
2018-08-20T22:00:29.748Z,51.96
2018-08-20T22:03:02.809Z,52.34
2018-08-20T22:05:33.771Z,51.97
2018-08-20T22:08:04.408Z,52.72
2018-08-20T22:10:35.574Z,52.23
2018-08-20T22:13:06.446Z,52.29
2018-08-20T22:15:38.267Z,52.84
2018-08-20T22:18:08.564Z,52.76
2018-08-20T22:20:39.662Z,52.13
2018-08-20T22:23:24.950Z,52.55
2018-08-20T22:25:42.113Z,51.93
2018-08-20T22:28:12.757Z,52.32
2018-08-20T22:30:48.955Z,52.13
2018-08-20T22:33:20.806Z,51.88
2018-08-20T22:35:51.246Z,51.86
2018-08-20T22:38:21.881Z,51.58
2018-08-20T22:40:51.955Z,51.50
2018-08-20T22:43:22.722Z,52.19
2018-08-20T22:45:53.580Z,51.62
2018-08-20T22:48:23.726Z,52.05
2018-08-20T22:51:15.429Z,51.28
2018-08-20T22:53:53.576Z,52.92
2018-08-20T22:56:29.849Z,52.19
2018-08-20T22:59:08.207Z,53.11
2018-08-20T23:01:39.336Z,53.61
2018-08-20T23:04:10.607Z,53.26
2018-08-20T23:06:43.464Z,53.11
2018-08-20T23:09:27.711Z,53.28
2018-08-20T23:11:58.929Z,54.76
2018-08-20T23:14:30.064Z,54.27
2018-08-20T23:17:00.502Z,54.42
2018-08-20T23:19:31.378Z,55.26
2018-08-20T23:22:03.160Z,55.31
2018-08-20T23:24:34.095Z,55.35
2018-08-20T23:27:04.831Z,55.91
2018-08-20T23:29:34.892Z,55.44
2018-08-20T23:32:06.047Z,55.62
2018-08-20T23:34:37.287Z,56.43
2018-08-20T23:37:07.676Z,56.06
2018-08-20T23:39:38.585Z,56.16
2018-08-20T23:42:08.792Z,56.58
2018-08-20T23:44:40.025Z,56.54
2018-08-20T23:47:10.607Z,56.80
2018-08-20T23:49:42.600Z,56.33
2018-08-20T23:52:13.245Z,57.08
2018-08-20T23:54:44.890Z,57.37
2018-08-20T23:57:16.926Z,57.66
2018-08-20T23:59:49.190Z,57.98
